createdAt,value
2023-03-15T00:00:37.557Z,44
2023-03-15T00:06:31.494Z,44
2023-03-15T00:17:30.640Z,43.9
2023-03-15T00:23:08.375Z,43.8
2023-03-15T00:29:01.107Z,43.8
2023-03-15T00:34:54.516Z,43.8
2023-03-15T00:40:47.743Z,43.7
2023-03-15T00:46:24.718Z,43.7
2023-03-15T00:51:46.337Z,43.6
2023-03-15T01:02:30.920Z,43.6
2023-03-15T01:07:53.600Z,43.5
2023-03-15T01:13:46.694Z,43.4
2023-03-15T01:19:39.284Z,43.4
2023-03-15T01:25:32.179Z,43.4
2023-03-15T01:31:24.918Z,43.3
2023-03-15T01:37:02.017Z,43.3
2023-03-15T01:42:53.783Z,43.3
2023-03-15T01:48:31.437Z,43.3
2023-03-15T01:59:46.179Z,43.1
2023-03-15T02:05:39.297Z,43.1
2023-03-15T02:11:01.126Z,43.1
2023-03-15T02:16:37.933Z,43
2023-03-15T02:22:16.202Z,43
2023-03-15T02:28:09.725Z,42.9
2023-03-15T02:33:47.182Z,42.9
2023-03-15T02:39:09.901Z,42.9
2023-03-15T02:45:02.728Z,42.8
2023-03-15T02:50:55.168Z,42.8
2023-03-15T02:56:32.836Z,42.8
2023-03-15T03:02:09.822Z,42.7
2023-03-15T03:08:02.006Z,42.6
2023-03-15T03:19:16.697Z,42.6
2023-03-15T03:24:53.771Z,42.5
2023-03-15T03:30:32.513Z,42.5
2023-03-15T03:36:25.366Z,42.4
2023-03-15T03:42:18.282Z,42.4
2023-03-15T03:47:56.378Z,42.4
2023-03-15T03:53:49.363Z,42.3
2023-03-15T03:59:26.524Z,42.3
2023-03-15T04:05:04.209Z,42.3
2023-03-15T04:10:40.347Z,42.2
2023-03-15T04:16:33.864Z,42.1
2023-03-15T04:22:11.335Z,42.1
2023-03-15T04:27:48.660Z,42.1
2023-03-15T04:33:41.091Z,42
2023-03-15T04:39:34.178Z,42
2023-03-15T04:45:26.028Z,41.9
2023-03-15T04:50:47.073Z,41.9
2023-03-15T04:56:40.494Z,41.9
2023-03-15T05:02:03.921Z,41.9
2023-03-15T05:07:57.947Z,41.8
2023-03-15T05:13:54.773Z,41.8
2023-03-15T05:19:30.916Z,41.7
2023-03-15T05:25:08.054Z,41.7
2023-03-15T05:31:01.592Z,41.6
2023-03-15T05:36:38.617Z,41.6
2023-03-15T05:42:30.518Z,41.6
2023-03-15T05:48:23.500Z,41.5
2023-03-15T05:54:19.026Z,41.4
2023-03-15T06:00:11.714Z,41.4
2023-03-15T06:11:27.163Z,41.3
2023-03-15T06:17:05.020Z,41.3
2023-03-15T06:23:00.144Z,41.3
2023-03-15T06:28:52.197Z,41.3
2023-03-15T06:34:47.363Z,41.2
2023-03-15T06:40:40.503Z,41.2
2023-03-15T06:46:33.726Z,41.1
2023-03-15T06:52:42.506Z,41.1
2023-03-15T06:58:36.103Z,41.1
2023-03-15T07:04:30.050Z,41
2023-03-15T07:10:06.880Z,40.9
2023-03-15T07:16:00.876Z,40.9
2023-03-15T07:22:01.757Z,40.9
2023-03-15T07:28:09.902Z,40.8
2023-03-15T07:33:48.938Z,40.8
2023-03-15T07:39:43.957Z,40.8
2023-03-15T07:45:38.153Z,40.7
2023-03-15T07:51:32.643Z,40.7
2023-03-15T07:57:28.412Z,40.8
2023-03-15T08:03:09.449Z,39.9
2023-03-15T08:14:14.622Z,40.1
2023-03-15T08:19:53.076Z,40.1
2023-03-15T08:25:47.645Z,40
2023-03-15T08:31:40.669Z,40
2023-03-15T08:37:34.727Z,39.9
2023-03-15T08:43:30.551Z,40
2023-03-15T08:49:41.671Z,40.4
2023-03-15T08:55:34.080Z,40.3
2023-03-15T09:01:31.324Z,40.3
2023-03-15T09:07:11.402Z,40.9
2023-03-15T09:13:04.663Z,40.9
2023-03-15T09:18:57.563Z,40.9
2023-03-15T09:25:13.495Z,40.9
2023-03-15T09:30:50.261Z,40.9
2023-03-15T09:36:48.765Z,40.9
2023-03-15T09:42:40.066Z,40.8
2023-03-15T09:48:32.569Z,40.8
2023-03-15T09:54:10.291Z,40.8
2023-03-15T09:59:48.483Z,40.8
2023-03-15T10:05:42.315Z,40.7
2023-03-15T10:11:36.057Z,40.7
2023-03-15T10:17:28.695Z,40.6
2023-03-15T10:23:21.976Z,40.6
2023-03-15T10:29:15.421Z,40.6
2023-03-15T10:35:22.481Z,40.6
2023-03-15T10:41:31.576Z,40.5
2023-03-15T10:47:41.016Z,40.4
2023-03-15T10:53:39.117Z,40.4
2023-03-15T10:59:45.198Z,40.4
2023-03-15T11:05:40.015Z,40.3
2023-03-15T11:11:33.058Z,40.3
2023-03-15T11:17:26.316Z,40.3
2023-03-15T11:23:19.163Z,40.2
2023-03-15T11:29:22.440Z,40.1
2023-03-15T11:35:00.296Z,40.1
2023-03-15T11:41:17.924Z,40.1
2023-03-15T11:47:10.359Z,40.1
2023-03-15T11:52:31.499Z,40
2023-03-15T11:58:24.970Z,40
2023-03-15T12:04:05.563Z,39.9
2023-03-15T12:10:05.291Z,39.9
2023-03-15T12:15:43.476Z,39.8
2023-03-15T12:21:37.040Z,39.8
2023-03-15T12:27:10.933Z,39.8
2023-03-15T12:32:50.529Z,39.8
2023-03-15T12:38:27.354Z,39.7
2023-03-15T12:44:07.826Z,39.6
2023-03-15T12:49:30.715Z,39.7
2023-03-15T12:55:07.853Z,39.6
2023-03-15T13:00:56.818Z,39.6
2023-03-15T13:06:36.367Z,39.5
2023-03-15T13:12:22.516Z,39.5
2023-03-15T13:17:59.544Z,39.4
2023-03-15T13:23:45.046Z,39.4
2023-03-15T13:29:21.599Z,39.4
2023-03-15T13:34:58.820Z,39.3
2023-03-15T13:40:36.260Z,39.3
2023-03-15T13:46:13.243Z,39.3
2023-03-15T13:51:51.503Z,39.3
2023-03-15T13:57:55.521Z,39.2
2023-03-15T14:03:34.039Z,39.1
2023-03-15T14:09:11.428Z,39.1
2023-03-15T14:14:33.123Z,39.1
2023-03-15T14:20:27.037Z,39
2023-03-15T14:26:05.103Z,39
2023-03-15T14:31:42.542Z,38.9
2023-03-15T14:37:35.787Z,38.9
2023-03-15T14:43:28.679Z,38.9
2023-03-15T14:49:18.263Z,38.8
2023-03-15T14:55:10.882Z,38.8
2023-03-15T15:01:06.417Z,38.8
2023-03-15T15:06:58.550Z,38.8
2023-03-15T15:13:03.348Z,38.7
2023-03-15T15:19:17.665Z,38.6
2023-03-15T15:25:24.036Z,38.6
2023-03-15T15:31:10.002Z,38.6
2023-03-15T15:37:05.183Z,38.1
2023-03-15T15:42:58.703Z,37.9
2023-03-15T15:48:52.597Z,37.6
2023-03-15T15:54:29.250Z,37.4
2023-03-15T16:00:22.020Z,37.3
2023-03-15T16:06:17.055Z,37.1
2023-03-15T16:12:09.239Z,37.1
2023-03-15T16:18:02.395Z,36.8
2023-03-15T16:23:54.828Z,36.8
2023-03-15T16:29:47.295Z,36.6
2023-03-15T16:35:50.836Z,36.6
2023-03-15T16:41:12.810Z,36.5
2023-03-15T16:47:05.923Z,36.4
2023-03-15T16:52:58.740Z,36.4
2023-03-15T16:59:11.869Z,36.4
2023-03-15T17:05:07.343Z,36.3
2023-03-15T17:11:00.173Z,36.3
2023-03-15T17:16:52.626Z,36.3
2023-03-15T17:22:45.772Z,36.3
2023-03-15T17:28:42.583Z,36.2
2023-03-15T17:40:26.223Z,36.1
2023-03-15T17:46:04.292Z,35.9
2023-03-15T17:51:25.842Z,35.9
2023-03-15T17:57:05.511Z,35.8
2023-03-15T18:03:11.789Z,35.7
2023-03-15T18:09:18.640Z,35.6
2023-03-15T18:15:10.771Z,35.6
2023-03-15T18:21:04.270Z,35.5
2023-03-15T18:26:56.676Z,35.5
2023-03-15T18:32:49.854Z,35.4
2023-03-15T18:38:27.789Z,35.4
2023-03-15T18:44:05.049Z,35.4
2023-03-15T18:50:20.847Z,35.3
2023-03-15T18:55:57.785Z,35.3
2023-03-15T19:01:22.120Z,35.3
2023-03-15T19:06:44.521Z,35.3
2023-03-15T19:12:06.962Z,35.3
2023-03-15T19:17:59.954Z,35.3
2023-03-15T19:23:20.661Z,35.3
2023-03-15T19:28:58.092Z,35.2
2023-03-15T19:34:51.917Z,35.2
2023-03-15T19:40:28.797Z,35.1
2023-03-15T19:46:06.398Z,35.1
2023-03-15T19:51:28.928Z,35.1
2023-03-15T19:57:08.709Z,35.1
2023-03-15T20:02:49.238Z,35.1
2023-03-15T20:08:27.663Z,35.1
2023-03-15T20:14:21.907Z,35.1
2023-03-15T20:19:59.900Z,35.1
2023-03-15T20:25:22.235Z,35.1
2023-03-15T20:31:00.974Z,35
2023-03-15T20:36:55.373Z,35
2023-03-15T20:42:17.754Z,35
2023-03-15T20:47:55.084Z,35
2023-03-15T20:53:02.341Z,34.9
2023-03-15T20:58:26.324Z,34.9
2023-03-15T21:09:10.490Z,34.9
2023-03-15T21:15:06.433Z,34.9
2023-03-15T21:20:46.407Z,34.9
2023-03-15T21:26:17.773Z,34.9
2023-03-15T21:31:59.352Z,34.8
2023-03-15T21:37:51.673Z,34.8
2023-03-15T21:43:44.054Z,34.8
2023-03-15T21:59:35.138Z,34.8
2023-03-15T22:05:15.064Z,34.8
2023-03-15T22:10:37.126Z,34.8
2023-03-15T22:16:40.308Z,34.7
2023-03-15T22:22:17.760Z,34.7
2023-03-15T22:27:39.728Z,34.7
2023-03-15T22:33:17.139Z,34.7
2023-03-15T22:38:38.598Z,34.6
2023-03-15T22:44:16.004Z,34.6
2023-03-15T22:49:53.137Z,34.6
2023-03-15T22:55:30.440Z,34.6
2023-03-15T23:00:52.251Z,34.6
2023-03-15T23:06:45.650Z,34.6
2023-03-15T23:17:26.227Z,34.5
2023-03-15T23:22:48.734Z,34.5
2023-03-15T23:38:25.577Z,34.4
2023-03-15T23:49:42.494Z,34.4
2023-03-15T23:55:35.576Z,34.4
